createdAt,value
2018-10-20T00:01:10.302Z,43.33
2018-10-20T00:03:38.514Z,41.10
2018-10-20T00:06:06.779Z,43.13
2018-10-20T00:08:35.205Z,38.60
2018-10-20T00:11:03.541Z,44.23
2018-10-20T00:13:31.958Z,42.53
2018-10-20T00:16:00.230Z,45.83
2018-10-20T00:18:28.485Z,47.93
2018-10-20T00:20:56.772Z,42.53
2018-10-20T00:23:25.093Z,42.30
2018-10-20T00:28:46.457Z,42.97
2018-10-20T00:31:14.621Z,41.33
2018-10-20T00:33:42.830Z,36.23
2018-10-20T00:36:11.090Z,41.03
2018-10-20T00:38:39.382Z,41.97
2018-10-20T00:41:07.653Z,41.87
2018-10-20T00:43:35.933Z,45.53
2018-10-20T00:46:04.402Z,45.70
2018-10-20T00:48:32.645Z,48.13
2018-10-20T00:51:00.932Z,44.10
2018-10-20T00:53:29.201Z,45.97
2018-10-20T00:55:57.475Z,36.70
2018-10-20T00:58:25.914Z,43.40
2018-10-20T01:00:54.173Z,42.50
2018-10-20T01:03:22.490Z,41.03
2018-10-20T01:05:50.737Z,38.10
2018-10-20T01:08:19.020Z,41.37
2018-10-20T01:10:47.274Z,35.27
2018-10-20T01:13:15.775Z,43.33
2018-10-20T01:15:43.970Z,49.30
2018-10-20T01:18:12.272Z,39.13
2018-10-20T01:20:40.533Z,53.80
2018-10-20T01:23:08.832Z,47.07
2018-10-20T01:25:37.113Z,39.10
2018-10-20T01:28:05.426Z,48.47
2018-10-20T01:30:33.678Z,50.77
2018-10-20T01:33:01.959Z,49.90
2018-10-20T01:35:30.211Z,46.90
2018-10-20T01:37:58.477Z,40.70
2018-10-20T01:40:26.766Z,42.13
2018-10-20T01:42:55.047Z,44.03
2018-10-20T01:45:23.277Z,45.40
2018-10-20T01:47:51.542Z,41.57
2018-10-20T01:50:19.821Z,44.00
2018-10-20T01:52:48.090Z,49.40
2018-10-20T01:55:16.459Z,44.57
2018-10-20T01:57:44.655Z,36.73
2018-10-20T02:00:12.918Z,42.87
2018-10-20T02:02:41.162Z,44.40
2018-10-20T02:05:09.478Z,37.50
2018-10-20T02:07:37.754Z,44.00
2018-10-20T02:10:06.037Z,44.30
2018-10-20T02:12:34.328Z,45.53
2018-10-20T02:15:02.761Z,42.70
2018-10-20T02:17:31.025Z,45.20
2018-10-20T02:19:59.301Z,47.03
2018-10-20T02:22:27.570Z,46.53
2018-10-20T02:24:55.824Z,42.77
2018-10-20T02:27:24.088Z,38.43
2018-10-20T02:29:52.389Z,41.83
2018-10-20T02:32:20.612Z,44.73
2018-10-20T02:34:49.018Z,46.67
2018-10-20T02:37:17.368Z,51.10
2018-10-20T02:39:45.622Z,49.17
2018-10-20T02:42:13.909Z,38.90
2018-10-20T02:44:42.145Z,41.53
2018-10-20T02:47:10.402Z,47.30
2018-10-20T02:49:38.678Z,48.63
2018-10-20T02:52:21.750Z,49.40
2018-10-20T02:54:50.011Z,50.27
2018-10-20T02:57:19.014Z,47.70
2018-10-20T02:59:47.301Z,51.27
2018-10-20T03:02:15.746Z,47.80
2018-10-20T03:04:44.037Z,50.17
2018-10-20T03:07:12.333Z,48.17
2018-10-20T03:09:40.574Z,43.87
2018-10-20T03:12:08.846Z,48.80
2018-10-20T03:14:37.105Z,44.17
2018-10-20T03:17:06.453Z,49.63
2018-10-20T03:19:35.250Z,39.23
2018-10-20T03:22:03.759Z,51.07
2018-10-20T03:24:31.979Z,45.37
2018-10-20T03:27:00.259Z,52.90
2018-10-20T03:29:28.885Z,46.53
2018-10-20T03:31:57.141Z,44.33
2018-10-20T03:34:25.501Z,46.57
2018-10-20T03:36:54.208Z,47.93
2018-10-20T03:39:22.502Z,44.67
2018-10-20T03:41:50.798Z,48.40
2018-10-20T03:44:19.107Z,46.37
2018-10-20T03:46:47.673Z,40.43
2018-10-20T03:49:16.095Z,46.83
2018-10-20T03:51:46.512Z,47.47
2018-10-20T03:54:16.307Z,42.40
2018-10-20T03:56:44.809Z,45.67
2018-10-20T03:59:24.662Z,44.40
2018-10-20T04:01:52.929Z,45.13
2018-10-20T04:04:21.281Z,49.50
2018-10-20T04:06:49.558Z,49.37
2018-10-20T04:09:17.869Z,43.77
2018-10-20T04:11:46.178Z,46.00
2018-10-20T04:14:14.657Z,40.77
2018-10-20T04:16:42.939Z,41.73
2018-10-20T04:19:11.249Z,46.40
2018-10-20T04:21:39.542Z,42.93
2018-10-20T04:24:07.797Z,46.30
2018-10-20T04:26:36.105Z,45.40
2018-10-20T04:29:04.389Z,49.47
2018-10-20T04:31:32.740Z,47.00
2018-10-20T04:34:01.149Z,47.43
2018-10-20T04:36:29.362Z,48.27
2018-10-20T04:38:57.647Z,46.67
2018-10-20T04:41:25.934Z,44.90
2018-10-20T04:43:54.172Z,48.37
2018-10-20T04:46:22.462Z,41.27
2018-10-20T04:48:51.034Z,47.43
2018-10-20T04:51:19.305Z,47.53
2018-10-20T04:53:47.566Z,46.50
2018-10-20T04:56:15.863Z,46.47
2018-10-20T04:58:44.157Z,46.93
2018-10-20T05:01:12.537Z,47.33
2018-10-20T05:03:40.707Z,41.90
2018-10-20T05:06:09.002Z,49.23
2018-10-20T05:08:37.250Z,49.53
2018-10-20T05:11:05.748Z,48.97
2018-10-20T05:13:45.459Z,47.00
2018-10-20T05:16:13.811Z,36.83
2018-10-20T05:18:42.062Z,49.57
2018-10-20T05:21:10.345Z,45.93
2018-10-20T05:23:38.622Z,42.03
2018-10-20T05:26:06.885Z,48.13
2018-10-20T05:28:35.147Z,43.30
2018-10-20T05:31:03.436Z,39.23
2018-10-20T05:33:31.648Z,38.57
2018-10-20T05:35:59.921Z,46.27
2018-10-20T05:38:28.598Z,38.93
2018-10-20T05:40:56.898Z,41.90
2018-10-20T05:43:25.199Z,45.77
2018-10-20T05:45:53.517Z,45.37
2018-10-20T05:48:21.741Z,33.60
2018-10-20T05:50:50.183Z,38.57
2018-10-20T05:53:18.446Z,34.93
2018-10-20T05:55:46.773Z,36.77
2018-10-20T05:58:15.033Z,33.80
2018-10-20T06:00:43.304Z,34.13
2018-10-20T06:03:11.553Z,40.67
2018-10-20T06:05:39.841Z,35.57
2018-10-20T06:08:08.122Z,35.93
2018-10-20T06:10:36.411Z,42.93
2018-10-20T06:13:04.700Z,37.70
2018-10-20T06:15:33.010Z,35.07
2018-10-20T06:18:01.267Z,38.33
2018-10-20T06:20:41.042Z,44.80
2018-10-20T06:23:09.360Z,45.57
2018-10-20T06:25:37.633Z,47.53
2018-10-20T06:28:06.029Z,46.13
2018-10-20T06:30:34.263Z,44.70
2018-10-20T06:33:02.626Z,79.97
2018-10-20T06:35:30.927Z,48.57
2018-10-20T06:37:59.178Z,53.60
2018-10-20T06:40:27.541Z,45.00
2018-10-20T06:42:56.014Z,46.27
2018-10-20T06:45:24.242Z,46.27
2018-10-20T06:47:52.588Z,42.33
2018-10-20T06:50:20.810Z,39.63
2018-10-20T06:52:49.070Z,45.93
2018-10-20T06:55:17.377Z,50.93
2018-10-20T06:57:45.650Z,55.53
2018-10-20T07:00:13.901Z,49.57
2018-10-20T07:02:42.153Z,41.67
2018-10-20T07:05:11.125Z,50.77
2018-10-20T07:07:39.699Z,46.50
2018-10-20T07:10:08.759Z,45.00
2018-10-20T07:12:37.074Z,36.67
2018-10-20T07:15:06.607Z,51.57
2018-10-20T07:17:34.896Z,53.63
2018-10-20T07:20:03.344Z,47.67
2018-10-20T07:22:31.601Z,52.13
2018-10-20T07:24:59.907Z,52.03
2018-10-20T07:27:28.162Z,51.77
2018-10-20T07:30:07.782Z,39.30
2018-10-20T07:32:36.342Z,42.57
2018-10-20T07:35:05.141Z,40.97
2018-10-20T07:37:33.460Z,35.07
2018-10-20T07:40:01.739Z,35.10
2018-10-20T07:42:30.020Z,39.00
2018-10-20T07:44:58.456Z,40.43
2018-10-20T07:47:26.708Z,38.73
2018-10-20T07:49:54.973Z,42.83
2018-10-20T07:52:23.260Z,41.13
2018-10-20T07:54:51.542Z,43.20
2018-10-20T07:57:23.244Z,44.63
2018-10-20T07:59:51.761Z,42.10
2018-10-20T08:02:20.029Z,44.10
2018-10-20T08:04:48.395Z,43.20
2018-10-20T08:07:16.663Z,45.73
2018-10-20T08:09:44.922Z,41.10
2018-10-20T08:12:13.205Z,36.03
2018-10-20T08:14:41.457Z,33.73
2018-10-20T08:17:09.894Z,40.83
2018-10-20T08:19:38.209Z,50.13
2018-10-20T08:22:06.530Z,48.97
2018-10-20T08:24:34.825Z,48.03
2018-10-20T08:27:03.160Z,48.10
2018-10-20T08:29:31.409Z,52.57
2018-10-20T08:32:01.052Z,38.40
2018-10-20T08:34:31.877Z,45.70
2018-10-20T08:37:00.289Z,44.03
2018-10-20T08:39:28.546Z,50.07
2018-10-20T08:41:56.882Z,56.67
2018-10-20T08:44:25.125Z,51.87
2018-10-20T08:46:53.453Z,53.40
2018-10-20T08:49:21.731Z,57.37
2018-10-20T08:51:50.013Z,44.13
2018-10-20T08:54:18.414Z,44.83
2018-10-20T08:56:46.604Z,47.93
2018-10-20T08:59:15.065Z,63.37
2018-10-20T09:01:43.318Z,48.83
2018-10-20T09:04:11.595Z,63.57
2018-10-20T09:06:39.934Z,51.53
2018-10-20T09:09:09.107Z,60.77
2018-10-20T09:11:37.317Z,55.43
2018-10-20T09:14:05.910Z,50.17
2018-10-20T09:16:34.170Z,64.13
2018-10-20T09:19:02.639Z,59.03
2018-10-20T09:21:30.942Z,50.90
2018-10-20T09:23:59.313Z,42.97
2018-10-20T09:26:27.805Z,59.47
2018-10-20T09:28:56.204Z,58.77
2018-10-20T09:31:24.458Z,61.30
2018-10-20T09:33:53.179Z,56.10
2018-10-20T09:36:21.466Z,61.63
2018-10-20T09:38:49.805Z,63.20
2018-10-20T09:41:18.084Z,53.50
2018-10-20T09:43:46.342Z,59.40
2018-10-20T09:46:14.640Z,49.50
2018-10-20T09:48:42.991Z,71.20
2018-10-20T09:51:11.189Z,66.97
2018-10-20T09:53:39.469Z,53.63
2018-10-20T09:56:07.813Z,52.83
2018-10-20T09:58:37.044Z,71.07
2018-10-20T10:01:09.204Z,68.90
2018-10-20T10:03:39.516Z,67.37
2018-10-20T10:06:08.866Z,61.73
2018-10-20T10:08:39.337Z,72.47
2018-10-20T10:11:07.937Z,60.27
2018-10-20T10:13:36.288Z,70.17
2018-10-20T10:16:05.101Z,70.43
2018-10-20T10:18:33.405Z,76.93
2018-10-20T10:21:01.678Z,76.50
2018-10-20T10:23:29.945Z,69.67
2018-10-20T10:25:58.899Z,74.97
2018-10-20T10:28:27.340Z,81.17
2018-10-20T10:30:55.668Z,60.70
2018-10-20T10:33:23.881Z,65.00
2018-10-20T10:35:52.169Z,76.93
2018-10-20T10:38:43.165Z,56.23
2018-10-20T10:41:16.501Z,85.00
2018-10-20T10:44:01.114Z,53.47
2018-10-20T10:46:33.307Z,71.40
2018-10-20T10:49:09.808Z,68.17
2018-10-20T10:51:41.741Z,67.40
2018-10-20T10:54:14.480Z,59.43
2018-10-20T10:56:55.244Z,66.93
2018-10-20T10:59:28.989Z,62.47
2018-10-20T11:02:04.242Z,71.03
2018-10-20T11:04:41.013Z,75.37
2018-10-20T11:07:14.822Z,69.70
2018-10-20T11:09:51.910Z,75.47
2018-10-20T11:12:28.417Z,58.23
2018-10-20T11:15:18.597Z,65.93
2018-10-20T11:17:52.560Z,73.33
2018-10-20T11:20:26.458Z,46.03
2018-10-20T11:23:14.519Z,68.70
2018-10-20T11:26:21.396Z,62.47
2018-10-20T11:28:55.181Z,61.80
2018-10-20T11:31:29.851Z,54.87
2018-10-20T11:34:05.957Z,66.47
2018-10-20T11:38:42.698Z,67.57
2018-10-20T11:41:28.449Z,60.73
2018-10-20T11:44:03.190Z,55.97
2018-10-20T11:46:35.858Z,53.67
2018-10-20T11:49:11.862Z,60.57
2018-10-20T11:51:40.129Z,51.93
2018-10-20T11:54:08.587Z,59.77
2018-10-20T11:56:36.829Z,55.30
2018-10-20T11:59:05.120Z,60.87
2018-10-20T12:01:33.398Z,61.13
2018-10-20T12:04:01.707Z,62.20
2018-10-20T12:06:30.012Z,63.30
2018-10-20T12:08:58.346Z,58.83
2018-10-20T12:11:26.652Z,58.97
2018-10-20T12:13:55.006Z,52.63
2018-10-20T12:16:23.338Z,61.90
2018-10-20T12:18:51.601Z,59.97
2018-10-20T12:21:19.882Z,58.03
2018-10-20T12:23:48.166Z,53.60
2018-10-20T12:26:16.430Z,48.00
2018-10-20T12:28:44.782Z,60.57
2018-10-20T12:31:13.275Z,57.93
2018-10-20T12:33:41.588Z,58.50
2018-10-20T12:36:09.936Z,59.27
2018-10-20T12:38:38.123Z,51.27
2018-10-20T12:41:06.367Z,57.30
2018-10-20T12:43:34.882Z,56.90
2018-10-20T12:46:03.310Z,61.10
2018-10-20T12:48:31.553Z,54.57
2018-10-20T12:50:59.826Z,52.73
2018-10-20T12:53:28.091Z,56.87
2018-10-20T12:55:56.410Z,56.80
2018-10-20T12:58:24.696Z,54.37
2018-10-20T13:00:52.970Z,57.10
2018-10-20T13:03:21.192Z,52.37
2018-10-20T13:05:49.511Z,54.43
2018-10-20T13:08:17.797Z,55.17
2018-10-20T13:10:46.052Z,52.77
2018-10-20T13:13:14.333Z,53.83
2018-10-20T13:15:42.614Z,46.20
2018-10-20T13:18:11.001Z,57.47
2018-10-20T13:20:39.210Z,52.20
2018-10-20T13:23:07.486Z,46.30
2018-10-20T13:25:35.745Z,51.37
2018-10-20T13:28:04.089Z,46.10
2018-10-20T13:30:32.378Z,52.03
2018-10-20T13:33:00.641Z,42.53
2018-10-20T13:35:28.996Z,48.67
2018-10-20T13:37:57.229Z,51.90
2018-10-20T13:40:25.589Z,51.33
2018-10-20T13:42:53.889Z,43.63
2018-10-20T13:45:22.153Z,42.17
2018-10-20T13:47:50.443Z,43.77
2018-10-20T13:50:18.711Z,43.40
2018-10-20T13:52:46.965Z,42.57
2018-10-20T13:55:15.264Z,42.03
2018-10-20T13:57:43.521Z,42.00
2018-10-20T14:00:11.902Z,40.50
2018-10-20T14:02:40.102Z,40.27
2018-10-20T14:05:08.419Z,36.77
2018-10-20T14:07:37.551Z,36.40
2018-10-20T14:10:06.569Z,34.03
2018-10-20T14:12:34.853Z,40.10
2018-10-20T14:15:03.115Z,38.10
2018-10-20T14:17:31.455Z,36.03
2018-10-20T14:19:59.707Z,42.93
2018-10-20T14:22:27.994Z,39.23
2018-10-20T14:24:56.268Z,38.20
2018-10-20T14:27:24.532Z,32.40
2018-10-20T14:29:52.820Z,32.90
2018-10-20T14:32:21.078Z,35.10
2018-10-20T14:34:55.678Z,33.50
2018-10-20T14:37:24.236Z,35.27
2018-10-20T14:39:52.867Z,34.30
2018-10-20T14:42:21.751Z,28.73
2018-10-20T14:44:50.137Z,35.97
2018-10-20T14:47:18.616Z,30.03
2018-10-20T14:49:47.205Z,32.93
2018-10-20T14:52:15.473Z,31.80
2018-10-20T14:54:44.265Z,36.40
2018-10-20T14:57:12.620Z,33.97
2018-10-20T14:59:40.882Z,31.87
2018-10-20T15:02:09.432Z,32.97
2018-10-20T15:04:38.010Z,34.07
2018-10-20T15:07:07.038Z,34.60
2018-10-20T15:09:35.897Z,31.13
2018-10-20T15:12:04.415Z,32.37
2018-10-20T15:14:32.686Z,34.43
2018-10-20T15:17:01.063Z,30.07
2018-10-20T15:19:29.354Z,28.53
2018-10-20T15:21:57.653Z,34.97
2018-10-20T15:24:25.949Z,32.63
2018-10-20T15:26:54.230Z,29.13
2018-10-20T15:29:22.494Z,36.07
2018-10-20T15:31:50.760Z,27.43
2018-10-20T15:34:19.089Z,37.00
2018-10-20T15:36:47.389Z,37.17
2018-10-20T15:39:15.653Z,32.77
2018-10-20T15:41:43.933Z,30.60
2018-10-20T15:44:12.211Z,31.90
2018-10-20T15:46:40.497Z,25.67
2018-10-20T15:49:08.941Z,30.93
2018-10-20T15:51:37.225Z,32.03
2018-10-20T15:54:05.948Z,28.80
2018-10-20T15:56:34.209Z,33.43
2018-10-20T15:59:02.457Z,26.80
2018-10-20T16:01:30.739Z,28.57
2018-10-20T16:03:59.017Z,32.30
2018-10-20T16:06:27.322Z,31.27
2018-10-20T16:08:55.597Z,29.20
2018-10-20T16:11:23.858Z,30.57
2018-10-20T16:13:52.165Z,32.30
2018-10-20T16:16:20.433Z,34.23
2018-10-20T16:18:48.717Z,28.43
2018-10-20T16:21:16.986Z,25.47
2018-10-20T16:23:45.277Z,30.80
2018-10-20T16:26:13.524Z,28.27
2018-10-20T16:28:41.840Z,29.17
2018-10-20T16:31:10.117Z,28.13
2018-10-20T16:33:38.433Z,23.47
2018-10-20T16:36:06.722Z,30.03
2018-10-20T16:38:34.918Z,27.50
2018-10-20T16:41:03.175Z,27.80
2018-10-20T16:43:31.445Z,29.93
2018-10-20T16:45:59.726Z,26.53
2018-10-20T16:48:28.027Z,22.50
2018-10-20T16:50:56.285Z,25.63
2018-10-20T16:53:24.613Z,29.57
2018-10-20T16:55:52.901Z,27.70
2018-10-20T16:58:21.282Z,27.57
2018-10-20T17:00:49.584Z,27.90
2018-10-20T17:03:17.817Z,28.43
2018-10-20T17:05:46.079Z,28.30
2018-10-20T17:08:14.361Z,34.63
2018-10-20T17:10:42.620Z,30.10
2018-10-20T17:13:10.885Z,29.43
2018-10-20T17:15:39.210Z,29.53
2018-10-20T17:18:07.482Z,39.10
2018-10-20T17:20:35.874Z,47.30
2018-10-20T17:23:04.169Z,38.63
2018-10-20T17:25:32.699Z,39.73
2018-10-20T17:28:00.985Z,38.80
2018-10-20T17:30:29.330Z,34.40
2018-10-20T17:32:58.085Z,31.80
2018-10-20T17:35:26.463Z,34.83
2018-10-20T17:37:54.682Z,48.50
2018-10-20T17:40:23.393Z,36.43
2018-10-20T17:42:51.623Z,39.43
2018-10-20T17:45:19.909Z,35.30
2018-10-20T17:47:48.193Z,30.13
2018-10-20T17:50:16.494Z,32.90
2018-10-20T17:52:44.803Z,32.37
2018-10-20T17:55:13.067Z,29.70
2018-10-20T17:57:41.519Z,29.60
2018-10-20T18:00:09.903Z,30.40
2018-10-20T18:02:38.461Z,27.90
2018-10-20T18:05:09.195Z,27.37
2018-10-20T18:07:37.413Z,29.53
2018-10-20T18:10:06.261Z,28.73
2018-10-20T18:12:34.370Z,25.23
2018-10-20T18:15:03.203Z,25.40
2018-10-20T18:17:31.431Z,32.43
2018-10-20T18:19:59.726Z,26.57
2018-10-20T18:22:28.070Z,27.87
2018-10-20T18:24:56.354Z,28.27
2018-10-20T18:27:24.979Z,36.57
2018-10-20T18:29:53.309Z,38.20
2018-10-20T18:32:21.752Z,26.30
2018-10-20T18:34:50.114Z,24.60
2018-10-20T18:37:18.410Z,23.13
2018-10-20T18:39:48.499Z,23.00
2018-10-20T18:42:18.759Z,22.83
2018-10-20T18:44:48.086Z,22.47
2018-10-20T18:47:17.025Z,22.33
2018-10-20T18:49:44.249Z,21.33
2018-10-20T18:52:12.578Z,23.70
2018-10-20T18:54:40.853Z,24.10
2018-10-20T18:57:09.349Z,22.60
2018-10-20T18:59:37.510Z,19.80
2018-10-20T19:02:05.845Z,19.53
2018-10-20T19:04:34.138Z,20.30
2018-10-20T19:07:02.466Z,21.40
2018-10-20T19:09:31.809Z,16.17
2018-10-20T19:12:01.578Z,17.70
2018-10-20T19:14:29.834Z,18.00
2018-10-20T19:16:58.102Z,14.93
2018-10-20T19:19:26.426Z,20.10
2018-10-20T19:21:54.734Z,14.43
2018-10-20T19:24:23.072Z,17.73
2018-10-20T19:26:51.442Z,15.93
2018-10-20T19:29:19.730Z,16.53
2018-10-20T19:31:48.085Z,15.77
2018-10-20T19:34:16.378Z,13.93
2018-10-20T19:36:44.722Z,21.07
2018-10-20T19:39:13.350Z,19.63
2018-10-20T19:41:42.639Z,19.63
2018-10-20T19:44:10.938Z,20.40
2018-10-20T19:46:39.198Z,21.63
2018-10-20T19:49:07.524Z,22.87
2018-10-20T19:51:35.825Z,22.53
2018-10-20T19:54:04.299Z,22.57
2018-10-20T19:56:32.630Z,19.10
2018-10-20T19:59:00.909Z,22.67
2018-10-20T20:01:29.196Z,26.57
2018-10-20T20:03:57.503Z,21.53
2018-10-20T20:06:25.774Z,23.57
2018-10-20T20:08:54.292Z,20.80
2018-10-20T20:11:22.574Z,21.33
2018-10-20T20:13:50.878Z,25.13
2018-10-20T20:16:19.614Z,22.50
2018-10-20T20:18:48.284Z,24.03
2018-10-20T20:21:16.649Z,21.53
2018-10-20T20:23:44.975Z,24.43
2018-10-20T20:26:13.292Z,23.70
2018-10-20T20:28:41.591Z,23.30
2018-10-20T20:31:09.843Z,20.27
2018-10-20T20:33:38.137Z,22.30
2018-10-20T20:36:06.423Z,21.43
2018-10-20T20:38:34.697Z,21.13
2018-10-20T20:41:03.049Z,20.37
2018-10-20T20:43:31.378Z,20.00
2018-10-20T20:45:59.655Z,18.30
2018-10-20T20:48:27.946Z,19.80
2018-10-20T20:50:56.283Z,19.30
2018-10-20T20:53:24.533Z,19.07
2018-10-20T20:55:52.856Z,15.80
2018-10-20T20:58:21.109Z,20.43
2018-10-20T21:00:49.393Z,19.60
2018-10-20T21:03:17.759Z,19.13
2018-10-20T21:05:46.047Z,18.23
2018-10-20T21:08:14.348Z,18.83
2018-10-20T21:10:42.741Z,16.67
2018-10-20T21:13:10.982Z,18.87
2018-10-20T21:15:39.262Z,17.83
2018-10-20T21:18:07.525Z,16.83
2018-10-20T21:20:35.791Z,15.03
2018-10-20T21:23:04.053Z,18.60
2018-10-20T21:25:32.358Z,18.10
2018-10-20T21:28:05.946Z,16.30
2018-10-20T21:30:34.242Z,18.90
2018-10-20T21:33:02.590Z,19.53
2018-10-20T21:35:30.927Z,17.70
2018-10-20T21:37:59.246Z,21.87
2018-10-20T21:40:27.603Z,17.93
2018-10-20T21:42:56.117Z,20.93
2018-10-20T21:45:24.415Z,21.93
2018-10-20T21:47:52.685Z,22.87
2018-10-20T21:50:21.386Z,21.50
2018-10-20T21:52:49.857Z,20.50
2018-10-20T21:55:18.148Z,20.93
2018-10-20T21:57:46.434Z,18.30
2018-10-20T22:00:14.721Z,18.27
2018-10-20T22:02:43.018Z,19.63
2018-10-20T22:05:11.333Z,23.80
2018-10-20T22:07:39.741Z,24.47
2018-10-20T22:10:08.066Z,22.53
2018-10-20T22:12:36.621Z,21.60
2018-10-20T22:15:06.134Z,19.10
2018-10-20T22:17:34.996Z,16.30
2018-10-20T22:20:03.349Z,18.27
2018-10-20T22:22:31.646Z,14.33
2018-10-20T22:24:59.910Z,13.57
2018-10-20T22:27:28.257Z,15.43
2018-10-20T22:29:56.537Z,16.83
2018-10-20T22:32:24.854Z,14.73
2018-10-20T22:34:53.283Z,15.00
2018-10-20T22:37:21.614Z,15.33
2018-10-20T22:39:50.038Z,16.43
2018-10-20T22:42:18.542Z,15.87
2018-10-20T22:44:46.814Z,13.90
2018-10-20T22:47:15.097Z,15.23
2018-10-20T22:49:43.411Z,29.87
2018-10-20T22:52:11.730Z,94.87
2018-10-20T22:54:39.993Z,54.87
2018-10-20T22:57:08.318Z,46.70
2018-10-20T22:59:36.573Z,52.13
2018-10-20T23:02:04.901Z,57.70
2018-10-20T23:04:33.166Z,48.97
2018-10-20T23:07:01.450Z,41.93
2018-10-20T23:09:29.736Z,36.80
2018-10-20T23:11:58.020Z,32.00
2018-10-20T23:14:26.295Z,28.27
2018-10-20T23:16:54.600Z,31.20
2018-10-20T23:19:22.873Z,44.30
2018-10-20T23:21:51.169Z,50.03
2018-10-20T23:24:19.623Z,36.37
2018-10-20T23:26:47.865Z,38.77
2018-10-20T23:29:16.158Z,38.47
2018-10-20T23:31:44.458Z,35.13
2018-10-20T23:34:12.807Z,28.87
2018-10-20T23:36:41.089Z,40.73
2018-10-20T23:39:09.866Z,45.03
2018-10-20T23:41:38.722Z,46.83
2018-10-20T23:44:07.295Z,43.97
2018-10-20T23:46:35.693Z,40.10
2018-10-20T23:49:04.029Z,34.80
2018-10-20T23:51:32.315Z,29.47
2018-10-20T23:54:00.573Z,26.80
2018-10-20T23:56:28.872Z,26.43
2018-10-20T23:58:57.206Z,24.00
